Time;durP1;ratioP1;P1;durP2;ratioP2;P2;SDS_P1;SDS_P2;PMS_P1;PMS_P2;Temp;Humidity;BMP_temperature;BMP_pressure;BME280_temperature;BME280_humidity;BME280_pressure;Samples;Min_cycle;Max_cycle;Signal;HPM_P1;HPM_P2
2022/07/01 00:03:13;;;;;;;7.68;7.03;;;;;;;-146.19;100.00;65364.44;10019710;29;20114;-84
2022/07/01 00:08:32;;;;;;;7.88;7.18;;;;;;;-146.19;100.00;65364.44;10017123;29;20057;-84
2022/07/01 00:13:52;;;;;;;7.70;7.03;;;;;;;-146.19;100.00;65364.44;10039352;29;20049;-84
2022/07/01 00:19:12;;;;;;;7.25;6.57;;;;;;;-146.19;100.00;65364.44;10025018;29;20541;-84
2022/07/01 00:24:31;;;;;;;7.88;7.18;;;;;;;-146.19;100.00;65364.44;10058405;29;20705;-84
2022/07/01 00:29:50;;;;;;;7.15;6.55;;;;;;;-146.19;100.00;65364.44;10036371;29;20065;-84
2022/07/01 00:35:10;;;;;;;7.78;7.07;;;;;;;-146.19;100.00;65364.44;10026539;29;20136;-83
2022/07/01 00:40:30;;;;;;;7.28;6.68;;;;;;;-146.19;100.00;65364.44;10046043;29;20049;-83
2022/07/01 00:45:50;;;;;;;7.68;6.88;;;;;;;-146.19;100.00;65364.44;10037009;29;20704;-84
2022/07/01 00:51:10;;;;;;;7.10;6.50;;;;;;;-146.19;100.00;65364.44;10046682;29;20057;-83
2022/07/01 00:56:30;;;;;;;7.57;6.90;;;;;;;-146.19;100.00;65364.44;10012834;29;20065;-84
2022/07/01 01:01:49;;;;;;;7.47;6.88;;;;;;;-146.19;100.00;65364.44;10035384;29;20049;-84
2022/07/01 01:07:08;;;;;;;7.18;6.57;;;;;;;-146.19;100.00;65364.44;10063313;29;20046;-85
2022/07/01 01:12:28;;;;;;;7.22;6.63;;;;;;;-146.19;100.00;65364.44;10038673;29;20041;-84
2022/07/01 01:17:48;;;;;;;7.10;6.50;;;;;;;-146.19;100.00;65364.44;10024807;29;20061;-84
2022/07/01 01:23:07;;;;;;;7.15;6.47;;;;;;;-146.19;100.00;65364.44;10053171;29;20497;-84
2022/07/01 01:28:27;;;;;;;7.13;6.53;;;;;;;-146.19;100.00;65364.44;10024323;29;20053;-84
2022/07/01 01:33:46;;;;;;;7.80;7.13;;;;;;;-146.19;100.00;65364.44;10043430;29;20057;-84
2022/07/01 01:39:17;;;;;;;7.68;6.97;;;;;;;-146.19;100.00;65364.44;10049698;29;20113;-84
2022/07/01 01:44:37;;;;;;;7.57;6.90;;;;;;;-146.19;100.00;65364.44;10035668;29;20098;-84
2022/07/01 01:49:56;;;;;;;7.72;7.13;;;;;;;-146.19;100.00;65364.44;10046714;29;20472;-84
2022/07/01 01:55:16;;;;;;;8.43;7.70;;;;;;;-146.19;100.00;65364.44;10053378;29;20055;-84
2022/07/01 02:00:35;;;;;;;7.93;7.30;;;;;;;-146.19;100.00;65364.44;10030044;29;20071;-85
2022/07/01 02:05:55;;;;;;;8.57;7.78;;;;;;;-146.19;100.00;65364.44;10041011;29;20054;-84
2022/07/01 02:11:15;;;;;;;8.02;7.43;;;;;;;-146.19;100.00;65364.44;10036794;29;20061;-84
2022/07/01 02:16:34;;;;;;;8.80;8.00;;;;;;;-146.19;100.00;65364.44;10038902;29;20062;-84
2022/07/01 02:21:54;;;;;;;8.45;7.70;;;;;;;-146.19;100.00;65364.44;10050195;29;20061;-84
2022/07/01 02:27:13;;;;;;;9.35;8.55;;;;;;;-146.19;100.00;65364.44;10045774;29;20065;-83
2022/07/01 02:32:33;;;;;;;8.13;7.40;;;;;;;-146.19;100.00;65364.44;10052629;29;20046;-84
2022/07/01 02:37:52;;;;;;;8.40;7.68;;;;;;;-146.19;100.00;65364.44;10046421;29;20439;-83
2022/07/01 02:43:12;;;;;;;8.52;7.80;;;;;;;-146.19;100.00;65364.44;10045909;29;20053;-84
2022/07/01 02:48:31;;;;;;;9.38;8.45;;;;;;;-146.19;100.00;65364.44;10028897;29;20057;-84
2022/07/01 02:53:51;;;;;;;9.07;8.18;;;;;;;-146.19;100.00;65364.44;10054886;29;20113;-83
2022/07/01 02:59:10;;;;;;;9.15;8.35;;;;;;;-146.19;100.00;65364.44;10044124;29;20399;-84
2022/07/01 03:04:29;;;;;;;8.63;7.88;;;;;;;-146.19;100.00;65364.44;10034536;29;20057;-84
2022/07/01 03:09:49;;;;;;;9.75;8.75;;;;;;;-146.19;100.00;65364.44;10032825;29;20062;-84
2022/07/01 03:15:11;;;;;;;9.13;8.32;;;;;;;-146.19;100.00;65364.44;10049158;29;20057;-84
2022/07/01 03:20:31;;;;;;;8.93;8.13;;;;;;;-146.19;100.00;65364.44;10007908;29;20683;-83
2022/07/01 03:25:50;;;;;;;8.60;7.75;;;;;;;-146.19;100.00;65364.44;10046352;29;20053;-83
2022/07/01 03:31:10;;;;;;;8.98;8.07;;;;;;;-146.19;100.00;65364.44;10041096;29;20080;-84
2022/07/01 03:36:30;;;;;;;9.05;8.10;;;;;;;-146.19;100.00;65364.44;10026486;29;20053;-83
2022/07/01 03:41:49;;;;;;;8.35;7.55;;;;;;;-146.19;100.00;65364.44;10045393;29;20054;-83
2022/07/01 03:47:08;;;;;;;8.68;7.88;;;;;;;-146.19;100.00;65364.44;10050197;29;20066;-83
2022/07/01 03:52:28;;;;;;;9.13;8.23;;;;;;;-146.19;100.00;65364.44;10038669;29;20113;-83
2022/07/01 03:57:47;;;;;;;12.77;8.68;;;;;;;-146.19;100.00;65364.44;10019061;29;20066;-83
2022/07/01 04:03:06;;;;;;;8.48;7.68;;;;;;;-146.19;100.00;65364.44;10048615;29;20053;-83
2022/07/01 04:08:26;;;;;;;8.63;7.82;;;;;;;-146.19;100.00;65364.44;10034794;29;20506;-83
2022/07/01 04:13:50;;;;;;;8.55;7.78;;;;;;;-146.19;100.00;65364.44;10046478;29;20086;-83
2022/07/01 04:19:10;;;;;;;10.07;7.97;;;;;;;-146.19;100.00;65364.44;10045980;29;20050;-83
2022/07/01 04:24:32;;;;;;;8.65;7.88;;;;;;;-146.19;100.00;65364.44;10042412;29;20053;-83
2022/07/01 04:29:51;;;;;;;8.68;7.88;;;;;;;-146.19;100.00;65364.44;10045682;29;20064;-84
2022/07/01 04:35:13;;;;;;;8.93;8.07;;;;;;;-146.19;100.00;65364.44;10050608;29;20065;-84
2022/07/01 04:40:33;;;;;;;8.85;8.05;;;;;;;-146.19;100.00;65364.44;10041968;29;20585;-84
2022/07/01 04:45:53;;;;;;;8.30;7.60;;;;;;;-146.19;100.00;65364.44;10040204;29;20053;-84
2022/07/01 04:51:14;;;;;;;10.15;9.23;;;;;;;-146.19;100.00;65364.44;10014230;29;20580;-84
2022/07/01 04:56:33;;;;;;;12.35;9.60;;;;;;;-146.19;100.00;65364.44;10052778;29;20053;-84
2022/07/01 05:01:53;;;;;;;12.07;8.88;;;;;;;-146.19;100.00;65364.44;10039432;29;20049;-84
2022/07/01 05:07:27;;;;;;;11.10;9.98;;;;;;;-146.19;100.00;65364.44;10029367;29;20094;-85
2022/07/01 05:12:47;;;;;;;10.88;9.77;;;;;;;-146.19;100.00;65364.44;10043156;29;20062;-84
2022/07/01 05:23:45;;;;;;;11.15;10.05;;;;;;;-146.19;100.00;65364.44;10056386;29;20050;-84
2022/07/01 05:29:05;;;;;;;12.13;10.60;;;;;;;-146.19;100.00;65364.44;10049522;29;20053;-84
2022/07/01 05:34:24;;;;;;;12.43;11.32;;;;;;;-146.19;100.00;65364.44;10022617;29;20061;-84
2022/07/01 05:39:44;;;;;;;12.27;11.18;;;;;;;-146.19;100.00;65364.44;10042303;29;20053;-83
2022/07/01 05:45:04;;;;;;;13.07;11.60;;;;;;;-146.19;100.00;65364.44;10045804;29;20060;-84
2022/07/01 05:50:24;;;;;;;12.13;11.02;;;;;;;-146.19;100.00;65364.44;10035017;29;20057;-84
2022/07/01 05:55:43;;;;;;;12.27;11.07;;;;;;;-146.19;100.00;65364.44;10037250;29;20565;-83
2022/07/01 06:01:04;;;;;;;13.27;11.98;;;;;;;-146.19;100.00;65364.44;10050613;29;20105;-83
2022/07/01 06:06:23;;;;;;;12.75;11.07;;;;;;;-146.19;100.00;65364.44;10060226;29;20053;-83
2022/07/01 06:11:43;;;;;;;13.35;12.05;;;;;;;-146.19;100.00;65364.44;10066481;29;20049;-83
2022/07/01 06:17:04;;;;;;;11.90;10.73;;;;;;;-146.19;100.00;65364.44;10041683;29;20126;-83
2022/07/01 06:22:24;;;;;;;11.82;10.82;;;;;;;-146.19;100.00;65364.44;10026840;29;20509;-82
2022/07/01 06:27:44;;;;;;;11.15;10.07;;;;;;;-146.19;100.00;65364.44;10019765;29;20062;-82
2022/07/01 06:33:03;;;;;;;9.55;8.75;;;;;;;-146.19;100.00;65364.44;10035617;29;20064;-83
2022/07/01 06:38:24;;;;;;;10.63;9.63;;;;;;;-146.19;100.00;65364.44;10034739;29;20061;-82
2022/07/01 06:43:43;;;;;;;9.73;8.80;;;;;;;-146.19;100.00;65364.44;10020421;29;20054;-82
2022/07/01 06:49:03;;;;;;;11.50;8.95;;;;;;;-146.19;100.00;65364.44;10032439;29;20083;-82
2022/07/01 06:54:23;;;;;;;10.23;8.90;;;;;;;-146.19;100.00;65364.44;10044619;29;20053;-82
2022/07/01 06:59:43;;;;;;;9.88;8.43;;;;;;;-146.19;100.00;65364.44;10043758;29;20056;-83
2022/07/01 07:26:54;;;;;;;10.23;9.13;;;;;;;;;;10486165;28;20444;-53
2022/07/01 07:32:14;;;;;;;10.00;9.02;;;;;;;;;;10483204;28;20052;-52
2022/07/01 07:37:33;;;;;;;11.40;10.15;;;;;;;;;;10484924;28;20048;-50
2022/07/01 07:42:53;;;;;;;11.25;10.00;;;;;;;;;;10482777;28;20044;-53
2022/07/01 07:48:12;;;;;;;11.27;10.18;;;;;;;;;;10482897;28;20536;-53
2022/07/01 07:53:32;;;;;;;10.85;9.75;;;;;;;;;;10484641;28;20988;-53
2022/07/01 07:58:51;;;;;;;10.60;9.57;;;;;;;;;;10483189;28;20118;-52
2022/07/01 08:04:10;;;;;;;12.07;10.82;;;;;;;;;;10493606;28;20045;-53
2022/07/01 08:09:31;;;;;;;11.95;10.20;;;;;;;;;;10481883;28;20053;-51
2022/07/01 08:21:45;;;;;;;12.93;9.60;;;;;;;;;;9851532;22;20772;-83
2022/07/01 08:27:05;;;;;;;11.95;10.85;;;;;;;;;;10328250;28;20064;-83
2022/07/01 08:32:26;;;;;;;11.20;10.20;;;;;;;;;;10344519;28;20065;-83
2022/07/01 08:37:45;;;;;;;12.25;9.88;;;;;;;;;;10334478;28;20050;-84
2022/07/01 08:43:06;;;;;;;11.77;10.68;;;;;;;;;;10340705;28;20043;-84
2022/07/01 08:48:25;;;;;;;11.70;9.93;;;;;;;;;;10347185;28;20042;-83
2022/07/01 08:53:45;;;;;;;10.80;9.80;;;;;;;;;;10347374;28;20046;-84
2022/07/01 08:59:06;;;;;;;12.20;11.02;;;;;;;;;;10336135;28;20425;-83
2022/07/01 09:04:26;;;;;;;11.52;10.48;;;;;;;;;;10332033;28;20046;-83
2022/07/01 09:09:45;;;;;;;13.05;11.73;;;;;;;;;;10344559;28;20097;-82
2022/07/01 09:15:18;;;;;;;13.82;11.60;;;;;;;;;;10344210;28;20054;-82
2022/07/01 09:20:38;;;;;;;11.65;10.55;;;;;;;;;;10334201;28;20035;-83
2022/07/01 09:25:58;;;;;;;11.70;10.65;;;;;;;;;;10301939;28;20063;-83
2022/07/01 09:31:17;;;;;;;11.52;10.43;;;;;;;;;;10325259;28;20100;-84
2022/07/01 09:36:42;;;;;;;11.68;10.57;;;;;;;;;;10295103;28;20043;-83
2022/07/01 09:42:02;;;;;;;11.30;10.23;;;;;;;;;;10315578;28;20047;-84
2022/07/01 09:47:23;;;;;;;11.88;10.02;;;;;;;;;;10303077;28;20043;-83
2022/07/01 09:52:42;;;;;;;11.27;10.27;;;;;;;;;;10291217;28;20104;-83
2022/07/01 09:58:02;;;;;;;13.43;10.60;;;;;;;;;;10302355;28;20046;-83
2022/07/01 10:03:21;;;;;;;10.11;9.09;;;;;;;;;;9447916;28;10001548;-83
2022/07/01 10:08:41;;;;;;;10.13;8.15;;;;;;;;;;9840731;29;10001504;-84
2022/07/01 10:14:04;;;;;;;8.85;7.18;;;;;;;;;;10185075;29;20040;-82
2022/07/01 10:19:25;;;;;;;7.40;6.65;;;;;;;;;;10198186;28;20040;-85
2022/07/01 10:24:46;;;;;;;6.40;5.78;;;;;;;;;;10189563;28;20108;-85
2022/07/01 10:30:13;;;;;;;6.45;4.82;;;;;;;;;;10186928;29;20036;-84
2022/07/01 10:35:35;;;;;;;5.35;4.40;;;;;;;;;;10170339;29;20055;-85
2022/07/01 10:40:55;;;;;;;4.20;3.80;;;;;;;;;;10194989;28;20044;-85
2022/07/01 10:46:40;;;;;;;10.10;3.10;;;;;;;;;;10194423;28;20458;-84
2022/07/01 10:52:00;;;;;;;5.00;3.28;;;;;;;;;;10164694;29;20495;-84
2022/07/01 10:57:19;;;;;;;3.38;3.10;;;;;;;;;;10180133;29;20123;-83
2022/07/01 11:02:38;;;;;;;3.15;2.85;;;;;;;;;;10180834;29;20041;-84
2022/07/01 11:07:58;;;;;;;3.30;2.65;;;;;;;;;;10181548;29;20092;-84
2022/07/01 11:13:18;;;;;;;3.45;2.78;;;;;;;;;;10187012;28;20044;-84
2022/07/01 11:18:39;;;;;;;3.10;2.67;;;;;;;;;;10185620;29;20067;-84
2022/07/01 11:23:59;;;;;;;2.88;2.65;;;;;;;;;;10200923;29;21402;-85
2022/07/01 11:29:28;;;;;;;4.07;2.92;;;;;;;;;;10175901;29;20040;-85
2022/07/01 11:34:49;;;;;;;4.35;2.75;;;;;;;;;;10194723;29;20118;-84
2022/07/01 11:40:10;;;;;;;2.75;2.55;;;;;;;;;;10204173;29;20047;-84
2022/07/01 11:45:29;;;;;;;3.22;2.90;;;;;;;;;;10187720;29;20043;-84
2022/07/01 11:50:48;;;;;;;2.78;2.58;;;;;;;;;;10187592;29;20052;-84
2022/07/01 11:56:08;;;;;;;3.40;2.85;;;;;;;;;;10174074;29;20040;-84
2022/07/01 12:01:32;;;;;;;5.78;3.00;;;;;;;;;;10194954;29;20045;-84
2022/07/01 12:06:51;;;;;;;3.88;2.75;;;;;;;;;;10157481;29;20051;-84
2022/07/01 12:12:20;;;;;;;5.60;3.00;;;;;;;;;;10180068;29;20041;-84
2022/07/01 12:17:40;;;;;;;4.22;3.15;;;;;;;;;;10170479;29;20040;-85
2022/07/01 12:23:13;;;;;;;4.22;2.78;;;;;;;;;;10162614;29;20053;-84
2022/07/01 12:28:32;;;;;;;4.68;3.00;;;;;;;;;;10208420;29;20048;-83
2022/07/01 12:33:51;;;;;;;4.53;2.72;;;;;;;;;;10198675;29;20048;-83
2022/07/01 12:39:11;;;;;;;3.10;2.80;;;;;;;;;;10199875;29;20495;-83
2022/07/01 12:44:30;;;;;;;3.15;2.63;;;;;;;;;;10193711;29;20040;-83
2022/07/01 12:49:50;;;;;;;4.30;2.60;;;;;;;;;;10208497;28;20055;-83
2022/07/01 12:55:16;;;;;;;6.22;2.40;;;;;;;;;;10174041;29;20087;-83
2022/07/01 13:00:37;;;;;;;2.97;2.38;;;;;;;;;;10190138;29;20084;-83
2022/07/01 13:05:56;;;;;;;4.40;2.45;;;;;;;;;;10167545;29;20048;-84
2022/07/01 13:11:15;;;;;;;5.68;2.88;;;;;;;;;;10168793;29;20044;-83
2022/07/01 13:16:35;;;;;;;2.83;2.45;;;;;;;;;;10174607;29;20040;-82
2022/07/01 13:21:54;;;;;;;3.67;2.40;;;;;;;;;;10170992;29;20449;-82
2022/07/01 13:27:14;;;;;;;2.63;2.40;;;;;;;;;;10164408;29;20044;-83
2022/07/01 13:32:33;;;;;;;2.38;2.17;;;;;;;;;;10162772;29;20052;-83
2022/07/01 13:37:53;;;;;;;2.30;2.10;;;;;;;;;;10170747;29;20120;-83
2022/07/01 13:43:13;;;;;;;2.70;2.17;;;;;;;;;;10174197;28;20571;-83
2022/07/01 13:48:32;;;;;;;3.13;2.50;;;;;;;;;;8634016;28;10001531;-83
2022/07/01 13:53:51;;;;;;;4.07;2.28;;;;;;;;;;10195462;28;20468;-83
2022/07/01 13:59:11;;;;;;;3.70;2.42;;;;;;;;;;10204040;29;20043;-83
2022/07/01 14:04:30;;;;;;;2.67;2.47;;;;;;;;;;10212543;28;20047;-82
2022/07/01 14:09:50;;;;;;;2.65;2.40;;;;;;;;;;10242940;28;20043;-83
2022/07/01 14:15:09;;;;;;;2.70;2.50;;;;;;;;;;10213783;28;20452;-83
2022/07/01 14:20:29;;;;;;;2.80;2.60;;;;;;;;;;10198936;28;20444;-83
2022/07/01 14:25:48;;;;;;;2.90;2.70;;;;;;;;;;10191096;29;20059;-82
2022/07/01 14:31:08;;;;;;;2.78;2.58;;;;;;;;;;10227795;28;20471;-82
2022/07/01 14:36:27;;;;;;;3.97;2.55;;;;;;;;;;10213990;28;20451;-82
2022/07/01 14:41:49;;;;;;;3.25;2.45;;;;;;;;;;10227058;28;20043;-82
2022/07/01 14:47:08;;;;;;;3.85;2.70;;;;;;;;;;10207808;28;20047;-82
2022/07/01 14:52:29;;;;;;;2.80;2.60;;;;;;;;;;10217114;28;20051;-82
2022/07/01 14:57:48;;;;;;;2.70;2.50;;;;;;;;;;10216733;28;20055;-82
2022/07/01 15:03:08;;;;;;;2.88;2.67;;;;;;;;;;10213941;28;20047;-82
2022/07/01 15:08:27;;;;;;;3.00;2.80;;;;;;;;;;10202756;29;20058;-82
2022/07/01 15:13:46;;;;;;;3.25;2.88;;;;;;;;;;10220003;28;20051;-82
2022/07/01 15:19:05;;;;;;;2.92;2.72;;;;;;;;;;10192693;29;20418;-82
2022/07/01 15:24:25;;;;;;;2.80;2.60;;;;;;;;;;10202025;29;20551;-82
2022/07/01 15:29:44;;;;;;;3.20;2.90;;;;;;;;;;10220937;29;20074;-82
2022/07/01 15:35:04;;;;;;;2.63;2.42;;;;;;;;;;10214719;28;20043;-81
2022/07/01 15:40:24;;;;;;;2.70;2.50;;;;;;;;;;10212985;28;20059;-82
2022/07/01 15:45:43;;;;;;;2.42;2.22;;;;;;;;;;10225402;28;20055;-82
2022/07/01 15:51:03;;;;;;;2.42;2.22;;;;;;;;;;10208136;28;20102;-82
2022/07/01 15:56:22;;;;;;;2.00;1.90;;;;;;;;;;10217193;28;20548;-82
2022/07/01 16:01:41;;;;;;;3.35;2.05;;;;;;;;;;10222136;28;20476;-82
2022/07/01 16:07:02;;;;;;;1.80;1.70;;;;;;;;;;10194398;28;20051;-82
2022/07/01 16:12:21;;;;;;;2.03;1.92;;;;;;;;;;10206343;28;20096;-82
2022/07/01 16:17:43;;;;;;;2.25;2.05;;;;;;;;;;10235474;28;20047;-83
2022/07/01 16:23:03;;;;;;;2.45;1.55;;;;;;;;;;10205707;28;20059;-85
2022/07/01 16:28:25;;;;;;;2.83;1.98;;;;;;;;;;10216667;28;20043;-83
2022/07/01 16:33:46;;;;;;;2.03;1.92;;;;;;;;;;10221122;28;20048;-84
2022/07/01 16:39:16;;;;;;;2.83;2.10;;;;;;;;;;10235081;28;20066;-84
2022/07/01 16:44:42;;;;;;;5.55;2.45;;;;;;;;;;10227878;28;20121;-83
2022/07/01 16:50:11;;;;;;;2.53;2.33;;;;;;;;;;10191012;29;20036;-83
2022/07/01 16:55:32;;;;;;;2.40;2.30;;;;;;;;;;10221004;28;20047;-83
2022/07/01 17:00:52;;;;;;;2.10;2.00;;;;;;;;;;10211087;28;20040;-83
2022/07/01 17:06:11;;;;;;;2.10;2.00;;;;;;;;;;10226629;28;20056;-82
2022/07/01 17:11:30;;;;;;;2.70;2.13;;;;;;;;;;10211522;28;20040;-82
2022/07/01 17:16:50;;;;;;;2.55;2.15;;;;;;;;;;10203812;29;20047;-82
2022/07/01 17:22:14;;;;;;;2.20;2.00;;;;;;;;;;10225826;28;20127;-83
2022/07/01 17:27:33;;;;;;;2.22;2.13;;;;;;;;;;10227186;28;20485;-83
2022/07/01 17:32:55;;;;;;;2.08;1.98;;;;;;;;;;10223651;28;20422;-83
2022/07/01 17:38:16;;;;;;;2.40;1.98;;;;;;;;;;10205860;29;21560;-83
2022/07/01 17:43:35;;;;;;;1.83;1.73;;;;;;;;;;10216563;28;20044;-83
2022/07/01 17:48:56;;;;;;;2.30;2.10;;;;;;;;;;10200359;28;20036;-83
2022/07/01 17:54:20;;;;;;;6.55;2.10;;;;;;;;;;10197914;28;20399;-84
2022/07/01 17:59:40;;;;;;;3.00;2.10;;;;;;;;;;10229718;28;20040;-84
2022/07/01 18:05:01;;;;;;;2.00;1.90;;;;;;;;;;10211762;28;20094;-83
2022/07/01 18:10:20;;;;;;;2.20;2.00;;;;;;;;;;10208406;28;20507;-83
2022/07/01 18:15:40;;;;;;;2.20;2.05;;;;;;;;;;10226824;28;20637;-83
2022/07/01 18:21:02;;;;;;;2.25;2.05;;;;;;;;;;10205951;29;20048;-83
2022/07/01 18:26:25;;;;;;;2.50;1.92;;;;;;;;;;10196611;28;20126;-83
2022/07/01 18:31:45;;;;;;;2.30;1.90;;;;;;;;;;10218297;28;20743;-83
2022/07/01 18:37:06;;;;;;;4.47;2.33;;;;;;;;;;10229442;28;20051;-83
2022/07/01 18:42:26;;;;;;;2.15;1.92;;;;;;;;;;10220286;28;20044;-83
2022/07/01 18:47:48;;;;;;;4.45;2.03;;;;;;;;;;10222508;28;20118;-83
2022/07/01 18:53:07;;;;;;;2.00;1.90;;;;;;;;;;10201684;28;20040;-83
2022/07/01 18:58:27;;;;;;;2.67;1.92;;;;;;;;;;10196197;29;20527;-83
2022/07/01 19:03:46;;;;;;;2.05;1.88;;;;;;;;;;10233311;28;20050;-83
2022/07/01 19:09:07;;;;;;;1.90;1.80;;;;;;;;;;10210263;28;20490;-83
2022/07/01 19:14:27;;;;;;;2.20;2.00;;;;;;;;;;10229156;28;20055;-83
2022/07/01 19:19:46;;;;;;;2.03;1.92;;;;;;;;;;10210451;28;20043;-83
2022/07/01 19:25:05;;;;;;;2.75;1.75;;;;;;;;;;10222306;28;20064;-83
2022/07/01 19:30:25;;;;;;;2.00;1.85;;;;;;;;;;10207991;29;20051;-83
2022/07/01 19:35:44;;;;;;;1.85;1.75;;;;;;;;;;10222757;28;20044;-83
2022/07/01 19:41:03;;;;;;;1.80;1.70;;;;;;;;;;10211450;28;20060;-84
2022/07/01 19:46:23;;;;;;;1.70;1.60;;;;;;;;;;10226833;28;20047;-83
2022/07/01 19:51:42;;;;;;;1.83;1.73;;;;;;;;;;10173135;29;20054;-82
2022/07/01 19:57:02;;;;;;;1.88;1.77;;;;;;;;;;10206325;29;20047;-82
2022/07/01 20:02:21;;;;;;;1.85;1.75;;;;;;;;;;10210832;29;20040;-81
2022/07/01 20:07:40;;;;;;;1.83;1.73;;;;;;;;;;10177693;29;20434;-81
2022/07/01 20:13:00;;;;;;;1.77;1.67;;;;;;;;;;10199613;29;20036;-82
2022/07/01 20:18:19;;;;;;;1.70;1.60;;;;;;;;;;10201963;28;20423;-83
2022/07/01 20:23:39;;;;;;;1.88;1.77;;;;;;;;;;10200623;28;20506;-82
2022/07/01 20:28:59;;;;;;;1.80;1.70;;;;;;;;;;10217288;28;20423;-83
2022/07/01 20:34:18;;;;;;;2.35;1.63;;;;;;;;;;10219165;28;20048;-83
2022/07/01 20:39:37;;;;;;;7.78;1.95;;;;;;;;;;10201014;28;20055;-82
2022/07/01 20:44:57;;;;;;;1.70;1.60;;;;;;;;;;10210317;29;20043;-84
2022/07/01 20:50:16;;;;;;;1.70;1.60;;;;;;;;;;10223588;28;20411;-83
2022/07/01 20:55:36;;;;;;;2.50;1.50;;;;;;;;;;10221365;28;20043;-83
2022/07/01 21:00:56;;;;;;;2.17;1.83;;;;;;;;;;10220420;28;20039;-83
2022/07/01 21:06:15;;;;;;;1.75;1.65;;;;;;;;;;10240176;28;20064;-82
2022/07/01 21:11:34;;;;;;;2.60;1.63;;;;;;;;;;10222882;28;20047;-82
2022/07/01 21:16:54;;;;;;;2.22;1.65;;;;;;;;;;10241312;28;20040;-82
2022/07/01 21:22:13;;;;;;;1.90;1.70;;;;;;;;;;10241397;28;20051;-82
2022/07/01 21:27:32;;;;;;;1.60;1.50;;;;;;;;;;10208106;29;20491;-82
2022/07/01 21:32:52;;;;;;;1.70;1.60;;;;;;;;;;10242833;28;20054;-83
2022/07/01 21:38:11;;;;;;;1.80;1.70;;;;;;;;;;10236745;28;20043;-83
2022/07/01 21:43:30;;;;;;;1.70;1.60;;;;;;;;;;10234693;28;20042;-83
2022/07/01 21:48:52;;;;;;;2.72;1.58;;;;;;;;;;10235145;28;20046;-82
2022/07/01 21:54:13;;;;;;;1.55;1.45;;;;;;;;;;10241787;28;20047;-83
2022/07/01 21:59:33;;;;;;;1.40;1.40;;;;;;;;;;10240365;28;20051;-83
2022/07/01 22:04:53;;;;;;;1.85;1.60;;;;;;;;;;10226302;28;20070;-82
2022/07/01 22:10:14;;;;;;;1.50;1.40;;;;;;;;;;10236587;28;20095;-83
2022/07/01 22:15:34;;;;;;;1.50;1.40;;;;;;;;;;10238917;28;20458;-83
2022/07/01 22:20:54;;;;;;;1.30;1.20;;;;;;;;;;10270158;28;20054;-82
2022/07/01 22:26:13;;;;;;;1.40;1.30;;;;;;;;;;10231429;28;20063;-83
2022/07/01 22:31:34;;;;;;;2.03;1.33;;;;;;;;;;10230927;28;20056;-83
2022/07/01 22:36:55;;;;;;;1.40;1.30;;;;;;;;;;10237033;29;20043;-82
2022/07/01 22:42:16;;;;;;;1.40;1.30;;;;;;;;;;10264264;28;20043;-82
2022/07/01 22:47:42;;;;;;;1.40;1.30;;;;;;;;;;10243904;28;20101;-83
2022/07/01 22:53:20;;;;;;;1.40;1.30;;;;;;;;;;10241332;28;20046;-83
2022/07/01 22:58:53;;;;;;;1.30;1.20;;;;;;;;;;10215727;29;20048;-83
2022/07/01 23:04:15;;;;;;;1.40;1.30;;;;;;;;;;10257104;28;20047;-82
2022/07/01 23:09:48;;;;;;;1.42;1.33;;;;;;;;;;10247693;28;20048;-82
2022/07/01 23:20:46;;;;;;;1.35;1.25;;;;;;;;;;10247986;28;20044;-82
2022/07/01 23:26:07;;;;;;;1.52;1.42;;;;;;;;;;10244643;28;20098;-82
2022/07/01 23:31:28;;;;;;;1.40;1.23;;;;;;;;;;10237033;28;20046;-82
2022/07/01 23:36:48;;;;;;;1.17;1.13;;;;;;;;;;10221034;29;20040;-82
2022/07/01 23:42:08;;;;;;;1.23;1.13;;;;;;;;;;10236799;28;20047;-82
2022/07/01 23:47:27;;;;;;;1.15;1.10;;;;;;;;;;10240643;28;20040;-82
2022/07/01 23:52:47;;;;;;;1.98;1.13;;;;;;;;;;10249472;28;20043;-83
2022/07/01 23:58:06;;;;;;;1.30;1.20;;;;;;;;;;10238095;28;20079;-82
